Time;durP1;ratioP1;P1;durP2;ratioP2;P2;SDS_P1;SDS_P2;PMS_P1;PMS_P2;Temp;Humidity;BMP_temperature;BMP_pressure;BME280_temperature;BME280_humidity;BME280_pressure;Samples;Min_cycle;Max_cycle;Signal;HPM_P1;HPM_P2
2023/11/17 00:01:57;;;;;;;5.20;3.00;;;;;;;2.65;70.54;99356.79;107233;1257;59894;-41
2023/11/17 00:04:25;;;;;;;3.90;2.90;;;;;;;2.56;70.65;99357.34;107192;1257;73081;-40
2023/11/17 00:06:53;;;;;;;3.90;3.00;;;;;;;2.54;70.52;99359.37;107196;1257;67574;-40
2023/11/17 00:09:20;;;;;;;3.30;3.00;;;;;;;2.51;70.45;99362.75;107117;1255;72673;-40
2023/11/17 00:11:48;;;;;;;3.70;3.20;;;;;;;2.46;70.91;99359.67;107133;1257;59635;-40
2023/11/17 00:14:15;;;;;;;3.50;3.20;;;;;;;2.43;71.22;99359.70;107151;1260;60074;-41
2023/11/17 00:16:43;;;;;;;4.50;3.10;;;;;;;2.41;71.18;99360.08;107208;1257;73130;-41
2023/11/17 00:19:11;;;;;;;3.70;3.30;;;;;;;2.38;71.38;99358.06;107228;1257;67872;-41
2023/11/17 00:21:38;;;;;;;3.70;3.40;;;;;;;2.35;71.18;99360.50;107218;1260;73105;-40
2023/11/17 00:24:09;;;;;;;3.40;3.10;;;;;;;2.35;70.99;99362.42;106489;1257;1003394;-41
2023/11/17 00:26:36;;;;;;;3.60;3.30;;;;;;;2.37;71.41;99366.30;107213;1256;60037;-41
2023/11/17 00:29:06;;;;;;;5.10;3.70;;;;;;;2.35;70.91;99369.85;107247;1257;71769;-40
2023/11/17 00:31:34;;;;;;;4.00;3.60;;;;;;;2.27;70.88;99373.14;107240;1257;67578;-40
2023/11/17 00:34:01;;;;;;;4.50;4.00;;;;;;;2.17;71.22;99378.88;107247;1260;71715;-40
2023/11/17 00:36:29;;;;;;;4.60;3.60;;;;;;;2.08;71.54;99387.22;107065;1263;59723;-40
2023/11/17 00:38:57;;;;;;;4.10;3.50;;;;;;;2.04;72.02;99390.95;107080;1257;59423;-40
2023/11/17 00:41:25;;;;;;;3.30;3.00;;;;;;;2.09;72.03;99392.70;107136;1257;71739;-40
2023/11/17 00:43:57;;;;;;;3.80;3.00;;;;;;;2.13;71.91;99394.49;107249;1257;67881;-40
2023/11/17 00:46:25;;;;;;;7.20;3.90;;;;;;;2.07;72.28;99399.45;107207;1258;72772;-40
2023/11/17 00:48:53;;;;;;;5.90;4.10;;;;;;;1.99;72.54;99406.11;107221;1258;59931;-40
2023/11/17 00:51:21;;;;;;;5.50;4.10;;;;;;;1.92;72.89;99408.94;107182;1257;60030;-40
2023/11/17 00:53:49;;;;;;;4.60;4.00;;;;;;;1.88;73.22;99412.08;107254;1257;73063;-40
2023/11/17 00:56:18;;;;;;;5.10;4.30;;;;;;;1.85;73.48;99415.22;107268;1257;67613;-40
2023/11/17 00:58:45;;;;;;;5.20;4.30;;;;;;;1.89;73.39;99415.04;107220;1257;73109;-40
2023/11/17 01:01:13;;;;;;;4.30;3.90;;;;;;;1.91;73.64;99411.56;107252;1258;59477;-40
2023/11/17 01:03:42;;;;;;;5.80;4.90;;;;;;;1.84;73.57;99408.62;107254;1257;59694;-40
2023/11/17 01:06:09;;;;;;;5.40;4.40;;;;;;;1.75;73.88;99402.93;107249;1257;71779;-40
2023/11/17 01:08:37;;;;;;;5.20;4.50;;;;;;;1.71;74.09;99397.67;107109;1256;66790;-40
2023/11/17 01:11:05;;;;;;;4.70;4.00;;;;;;;1.70;74.37;99397.15;107238;1258;72670;-40
2023/11/17 01:13:33;;;;;;;4.50;4.00;;;;;;;1.73;74.12;99399.14;107255;1257;59398;-40
2023/11/17 01:16:00;;;;;;;6.10;4.90;;;;;;;1.74;74.06;99397.92;107184;1257;60028;-40
2023/11/17 01:18:28;;;;;;;6.30;4.70;;;;;;;1.75;74.27;99397.17;107219;1261;73045;-40
2023/11/17 01:20:56;;;;;;;6.90;5.30;;;;;;;1.75;74.35;99391.91;107196;1257;66072;-40
2023/11/17 01:23:25;;;;;;;6.30;5.30;;;;;;;1.70;74.12;99388.33;107267;1257;72701;-40
2023/11/17 01:25:52;;;;;;;5.10;4.10;;;;;;;1.65;74.45;99389.34;107150;1258;59647;-40
2023/11/17 01:28:20;;;;;;;5.80;4.80;;;;;;;1.62;74.62;99386.23;107281;1256;59676;-40
2023/11/17 01:30:47;;;;;;;7.50;4.90;;;;;;;1.65;74.46;99379.00;107249;1257;73067;-41
2023/11/17 01:33:15;;;;;;;8.60;5.30;;;;;;;1.72;74.38;99371.90;107216;1257;67583;-41
2023/11/17 01:35:43;;;;;;;6.40;5.10;;;;;;;1.77;74.71;99367.77;107245;1256;71376;-40
2023/11/17 01:38:11;;;;;;;6.60;5.40;;;;;;;1.82;74.80;99364.84;107239;1257;60003;-40
2023/11/17 01:40:39;;;;;;;8.60;5.60;;;;;;;1.84;74.62;99365.89;107192;1257;60981;-40
2023/11/17 01:43:09;;;;;;;7.20;6.40;;;;;;;1.85;74.72;99362.14;107131;1257;72780;-40
2023/11/17 01:45:39;;;;;;;8.00;5.90;;;;;;;1.91;74.63;99358.32;107124;1257;66629;-41
2023/11/17 01:48:07;;;;;;;7.20;5.90;;;;;;;1.91;74.49;99354.11;107121;1257;72693;-40
2023/11/17 01:50:35;;;;;;;6.60;4.90;;;;;;;1.98;74.35;99346.02;107105;1257;60982;-40
2023/11/17 01:53:03;;;;;;;6.30;5.60;;;;;;;2.07;74.22;99344.64;107103;1256;59749;-40
2023/11/17 01:55:31;;;;;;;7.70;5.90;;;;;;;2.07;74.38;99346.73;107236;1257;73457;-40
2023/11/17 01:57:58;;;;;;;6.50;5.70;;;;;;;2.08;74.30;99345.89;107190;1257;68174;-40
2023/11/17 02:00:26;;;;;;;7.90;5.90;;;;;;;2.10;74.30;99340.64;106517;1257;1003548;-41
2023/11/17 02:02:54;;;;;;;6.90;6.20;;;;;;;2.10;74.02;99342.59;107124;1257;59506;-40
2023/11/17 02:05:24;;;;;;;7.10;6.10;;;;;;;2.09;74.29;99348.42;107140;1257;60010;-40
2023/11/17 02:08:26;;;;;;;8.80;6.10;;;;;;;2.09;74.17;99356.17;107158;1257;73030;-40
2023/11/17 02:11:11;;;;;;;7.70;5.20;;;;;;;2.16;73.69;99357.30;107210;1258;65627;-40
2023/11/17 02:13:42;;;;;;;8.90;5.40;;;;;;;2.22;73.48;99356.39;107142;1257;72490;-40
2023/11/17 02:16:11;;;;;;;6.90;5.50;;;;;;;2.18;73.81;99352.87;107271;1257;59635;-40
2023/11/17 02:18:41;;;;;;;6.00;5.20;;;;;;;2.16;74.03;99349.66;107046;1257;59753;-40
2023/11/17 02:21:08;;;;;;;6.80;5.80;;;;;;;2.18;73.91;99349.77;107208;1256;73075;-40
2023/11/17 02:23:36;;;;;;;6.40;5.40;;;;;;;2.21;74.17;99349.55;107186;1257;66427;-40
2023/11/17 02:26:28;;;;;;;8.50;5.90;;;;;;;2.19;73.92;99353.15;107046;1257;71558;-40
2023/11/17 02:29:27;;;;;;;6.40;4.70;;;;;;;2.24;73.82;99349.35;107032;1256;59631;-40
2023/11/17 02:31:58;;;;;;;6.80;4.80;;;;;;;2.32;73.43;99346.23;107179;1255;59837;-40
2023/11/17 02:34:26;;;;;;;6.70;4.80;;;;;;;2.25;73.12;99348.77;107256;1257;73075;-40
2023/11/17 02:36:54;;;;;;;7.70;5.10;;;;;;;2.15;73.16;99342.79;107187;1260;68104;-41
2023/11/17 02:39:25;;;;;;;6.50;4.80;;;;;;;2.10;73.45;99342.59;107064;1257;72703;-40
2023/11/17 02:41:57;;;;;;;7.50;5.40;;;;;;;2.04;73.40;99341.00;107220;1256;59613;-40
2023/11/17 02:44:29;;;;;;;5.90;4.50;;;;;;;2.01;73.66;99340.60;107281;1256;60095;-40
2023/11/17 02:47:03;;;;;;;6.10;5.40;;;;;;;2.07;73.65;99328.63;107196;1256;73096;-40
2023/11/17 02:49:46;;;;;;;6.80;5.00;;;;;;;2.13;73.36;99330.63;107277;1257;66863;-40
2023/11/17 02:52:26;;;;;;;6.20;4.40;;;;;;;2.10;73.39;99328.63;107249;1256;72702;-41
2023/11/17 02:54:55;;;;;;;6.20;5.10;;;;;;;2.04;73.48;99326.36;107279;1257;59737;-41
2023/11/17 02:57:24;;;;;;;6.20;4.90;;;;;;;2.00;73.66;99330.10;107276;1257;59273;-42
2023/11/17 02:59:52;;;;;;;5.90;5.20;;;;;;;1.95;73.54;99333.03;107289;1257;71796;-41
2023/11/17 03:02:21;;;;;;;6.00;5.30;;;;;;;1.94;73.78;99333.59;107114;1258;66424;-41
2023/11/17 03:04:54;;;;;;;5.80;4.60;;;;;;;1.95;73.81;99333.10;107104;1256;72743;-41
2023/11/17 03:07:22;;;;;;;5.50;4.60;;;;;;;2.04;73.91;99335.77;107135;1256;60861;-41
2023/11/17 03:09:51;;;;;;;6.70;5.00;;;;;;;2.14;73.70;99341.78;107130;1258;59651;-41
2023/11/17 03:12:20;;;;;;;7.20;4.80;;;;;;;2.22;73.98;99345.73;107129;1257;73511;-41
2023/11/17 03:14:48;;;;;;;6.00;4.90;;;;;;;2.26;73.54;99345.31;107145;1256;67907;-41
2023/11/17 03:17:15;;;;;;;6.50;5.00;;;;;;;2.26;73.14;99343.06;107218;1257;71459;-41
2023/11/17 03:19:43;;;;;;;7.00;5.30;;;;;;;2.23;73.03;99346.67;107204;1257;59573;-41
2023/11/17 03:22:13;;;;;;;8.90;5.30;;;;;;;2.15;72.69;99341.55;107167;1255;60500;-41
2023/11/17 03:24:41;;;;;;;6.40;5.00;;;;;;;2.09;72.82;99344.42;107294;1257;73126;-40
2023/11/17 03:27:11;;;;;;;10.70;5.10;;;;;;;2.03;72.86;99345.23;107248;1255;68120;-40
2023/11/17 03:29:39;;;;;;;;;;;;;;;2.03;72.94;99338.10;107127;1255;72781;-41
2023/11/17 03:32:07;;;;;;;7.20;4.80;;;;;;;2.04;72.66;99342.44;107154;1256;59637;-41
2023/11/17 03:34:35;;;;;;;6.60;4.50;;;;;;;2.04;72.95;99336.55;107137;1257;60052;-41
2023/11/17 03:37:03;;;;;;;6.00;4.80;;;;;;;2.06;73.24;99335.20;107291;1255;73041;-41
2023/11/17 03:39:42;;;;;;;6.30;4.50;;;;;;;2.06;73.15;99339.14;107219;1255;67847;-41
2023/11/17 03:42:11;;;;;;;5.20;4.70;;;;;;;2.05;73.34;99341.52;107080;1256;73224;-41
2023/11/17 03:44:38;;;;;;;5.10;4.30;;;;;;;2.05;73.44;99341.26;107266;1256;59225;-41
2023/11/17 03:47:06;;;;;;;4.90;4.20;;;;;;;2.04;73.05;99342.95;107156;1256;60092;-41
2023/11/17 03:49:34;;;;;;;4.80;4.20;;;;;;;2.05;72.82;99342.54;107186;1256;73903;-41
2023/11/17 03:52:03;;;;;;;4.70;4.00;;;;;;;2.07;72.94;99340.56;107280;1257;66769;-41
2023/11/17 03:54:32;;;;;;;4.90;4.30;;;;;;;2.07;73.17;99341.91;107298;1256;71932;-41
2023/11/17 03:57:01;;;;;;;5.30;4.20;;;;;;;2.08;72.86;99342.58;107224;1256;60444;-41
2023/11/17 03:59:30;;;;;;;5.00;4.20;;;;;;;2.03;72.50;99337.78;107635;1253;60483;-41
2023/11/17 04:01:58;;;;;;;5.10;4.40;;;;;;;1.98;72.48;99332.75;107492;1253;73932;-41
2023/11/17 04:04:27;;;;;;;7.00;5.40;;;;;;;1.97;72.61;99325.10;107699;1253;66615;-41
2023/11/17 04:06:57;;;;;;;5.20;4.30;;;;;;;1.97;73.08;99321.52;107603;1253;72032;-41
2023/11/17 04:09:25;;;;;;;4.80;4.10;;;;;;;2.04;73.10;99324.04;107586;1252;60313;-40
2023/11/17 04:11:53;;;;;;;4.80;4.10;;;;;;;2.15;72.86;99324.43;107670;1254;60373;-41
2023/11/17 04:14:22;;;;;;;4.90;4.40;;;;;;;2.22;72.98;99324.23;107530;1253;72720;-41
2023/11/17 04:16:50;;;;;;;4.40;4.00;;;;;;;2.24;72.80;99331.70;107696;1253;67925;-41
2023/11/17 04:19:19;;;;;;;5.70;4.70;;;;;;;2.23;72.73;99334.84;107614;1251;72777;-41
2023/11/17 04:21:49;;;;;;;;;;;;;;;2.24;72.69;99333.67;107337;1254;60518;-41
2023/11/17 04:24:17;;;;;;;6.00;4.60;;;;;;;2.25;72.44;99331.86;107542;1253;59712;-41
2023/11/17 04:26:46;;;;;;;6.80;4.50;;;;;;;2.18;72.54;99331.20;107590;1251;72642;-41
2023/11/17 04:29:14;;;;;;;9.10;4.20;;;;;;;2.15;72.65;99334.06;107610;1251;66430;-41
2023/11/17 04:31:42;;;;;;;6.10;4.20;;;;;;;2.17;72.37;99331.71;107603;1253;72700;-41
2023/11/17 04:34:13;;;;;;;6.60;4.30;;;;;;;2.22;72.24;99332.95;107639;1253;60302;-41
2023/11/17 04:36:40;;;;;;;6.50;4.20;;;;;;;2.20;72.24;99332.17;107661;1252;60303;-41
2023/11/17 04:39:16;;;;;;;5.10;4.60;;;;;;;2.20;72.55;99328.96;107640;1256;73997;-41
2023/11/17 04:41:45;;;;;;;5.30;4.30;;;;;;;2.22;72.50;99330.44;107642;1251;67878;-41
2023/11/17 04:44:13;;;;;;;6.00;4.70;;;;;;;2.21;72.53;99334.52;107647;1253;72636;-41
2023/11/17 04:46:40;;;;;;;4.90;4.30;;;;;;;2.22;72.55;99330.06;107631;1251;60301;-41
2023/11/17 04:49:08;;;;;;;5.30;4.80;;;;;;;2.23;72.63;99325.44;107656;1251;60322;-40
2023/11/17 04:51:35;;;;;;;7.20;5.40;;;;;;;2.19;72.40;99324.59;106138;1253;1003588;-41
2023/11/17 04:54:03;;;;;;;4.70;4.20;;;;;;;2.24;72.23;99329.73;107655;1254;60392;-41
2023/11/17 04:56:31;;;;;;;5.80;4.10;;;;;;;2.33;72.00;99326.95;107471;1254;72670;-41
2023/11/17 04:58:58;;;;;;;8.60;4.80;;;;;;;2.33;72.03;99330.06;107574;1253;60553;-41
2023/11/17 05:01:26;;;;;;;4.70;3.80;;;;;;;2.33;72.37;99332.23;107652;1253;60433;-41
2023/11/17 05:03:54;;;;;;;4.80;4.10;;;;;;;2.34;72.12;99333.93;107662;1257;73876;-41
2023/11/17 05:06:23;;;;;;;6.00;4.40;;;;;;;2.32;71.87;99337.58;107642;1253;67571;-41
2023/11/17 05:08:51;;;;;;;4.30;3.00;;;;;;;2.27;71.65;99345.53;107670;1251;73102;-41
2023/11/17 05:11:21;;;;;;;6.00;4.60;;;;;;;2.20;71.76;99346.41;107646;1251;60395;-41
2023/11/17 05:13:49;;;;;;;7.10;3.80;;;;;;;2.11;71.79;99348.17;107621;1254;60503;-41
2023/11/17 05:16:16;;;;;;;5.30;4.30;;;;;;;2.10;71.91;99352.15;107525;1251;72601;-41
2023/11/17 05:18:44;;;;;;;5.20;4.30;;;;;;;2.15;71.91;99355.50;107598;1253;66415;-41
2023/11/17 05:21:13;;;;;;;4.80;3.90;;;;;;;2.14;71.91;99352.43;107638;1256;72654;-41
2023/11/17 05:23:41;;;;;;;4.30;3.60;;;;;;;2.11;72.28;99347.85;107642;1252;60348;-41
2023/11/17 05:26:09;;;;;;;5.00;3.70;;;;;;;2.10;72.25;99355.84;107559;1253;60316;-41
2023/11/17 05:28:37;;;;;;;4.50;3.90;;;;;;;2.10;72.26;99355.73;107529;1253;71695;-41
2023/11/17 05:31:04;;;;;;;9.10;4.00;;;;;;;2.10;72.11;99361.46;107576;1251;67567;-41
2023/11/17 05:33:33;;;;;;;5.00;3.90;;;;;;;2.09;72.26;99372.70;107580;1253;73121;-41
2023/11/17 05:36:01;;;;;;;6.80;3.80;;;;;;;2.07;72.36;99387.62;107635;1253;60890;-41
2023/11/17 05:38:29;;;;;;;4.50;3.20;;;;;;;2.11;71.64;99397.59;107626;1252;60231;-41
2023/11/17 05:40:57;;;;;;;4.40;3.80;;;;;;;2.15;71.80;99400.23;107658;1253;74185;-41
2023/11/17 05:43:24;;;;;;;6.50;3.70;;;;;;;2.17;72.04;99405.38;107630;1252;66269;-41
2023/11/17 05:45:53;;;;;;;4.40;3.90;;;;;;;2.15;71.88;99408.48;107610;1252;71474;-41
2023/11/17 05:48:21;;;;;;;5.30;3.50;;;;;;;2.14;71.94;99413.28;107623;1251;60453;-41
2023/11/17 05:50:49;;;;;;;6.80;4.00;;;;;;;2.17;71.96;99420.45;107588;1253;60455;-41
2023/11/17 05:53:16;;;;;;;4.70;3.80;;;;;;;2.19;71.82;99419.92;107601;1251;72701;-41
2023/11/17 05:55:44;;;;;;;6.20;4.50;;;;;;;2.22;71.94;99417.63;107629;1251;66725;-41
2023/11/17 05:58:12;;;;;;;4.80;3.90;;;;;;;2.25;72.00;99424.60;107627;1251;72676;-41
2023/11/17 06:00:39;;;;;;;6.60;4.30;;;;;;;2.27;71.73;99426.70;107691;1251;60994;-41
2023/11/17 06:03:07;;;;;;;5.40;3.90;;;;;;;2.35;71.79;99421.86;107678;1254;60265;-41
2023/11/17 06:05:35;;;;;;;4.50;4.10;;;;;;;2.44;71.39;99417.38;107608;1252;73865;-41
2023/11/17 06:08:03;;;;;;;6.90;4.80;;;;;;;2.44;71.55;99415.27;107658;1251;67566;-41
2023/11/17 06:10:31;;;;;;;5.30;4.50;;;;;;;2.45;71.76;99416.23;107600;1257;72694;-41
2023/11/17 06:12:59;;;;;;;5.40;4.90;;;;;;;2.49;71.48;99413.28;107606;1257;60546;-41
2023/11/17 06:15:27;;;;;;;5.10;4.50;;;;;;;2.50;71.56;99412.90;107627;1251;60533;-42
2023/11/17 06:17:56;;;;;;;6.20;5.10;;;;;;;2.51;71.23;99410.98;107652;1251;73816;-41
2023/11/17 06:20:25;;;;;;;5.40;4.60;;;;;;;2.49;70.93;99410.30;107667;1252;66267;-42
2023/11/17 06:22:53;;;;;;;5.10;4.40;;;;;;;2.48;71.16;99411.33;107645;1253;72495;-40
2023/11/17 06:25:20;;;;;;;6.60;4.90;;;;;;;2.50;70.93;99415.04;107603;1253;60553;-40
2023/11/17 06:27:49;;;;;;;5.60;5.00;;;;;;;2.50;70.98;99411.92;107541;1251;60428;-41
2023/11/17 06:30:17;;;;;;;7.70;4.70;;;;;;;2.58;70.81;99412.31;107551;1252;72657;-40
2023/11/17 06:32:45;;;;;;;7.20;4.90;;;;;;;2.68;70.67;99416.83;107564;1253;67574;-40
2023/11/17 06:35:14;;;;;;;8.00;4.50;;;;;;;2.68;70.77;99419.52;107590;1253;72672;-40
2023/11/17 06:37:42;;;;;;;4.80;3.40;;;;;;;2.68;70.62;99421.28;107363;1253;59925;-40
2023/11/17 06:40:10;;;;;;;5.30;4.10;;;;;;;2.68;70.89;99415.59;107556;1251;60362;-40
2023/11/17 06:42:41;;;;;;;7.40;4.10;;;;;;;2.67;70.65;99417.12;107655;1251;73811;-41
2023/11/17 06:45:12;;;;;;;5.70;4.10;;;;;;;2.68;70.63;99420.84;107613;1251;67759;-40
2023/11/17 06:47:43;;;;;;;5.80;4.40;;;;;;;2.69;70.41;99422.59;107535;1253;72775;-40
2023/11/17 06:50:11;;;;;;;5.80;4.70;;;;;;;2.64;70.17;99425.92;107626;1253;60575;-38
2023/11/17 06:52:40;;;;;;;5.50;4.30;;;;;;;2.61;70.59;99419.52;107610;1251;60415;-39
2023/11/17 06:55:09;;;;;;;4.90;3.70;;;;;;;2.60;70.68;99416.11;107542;1251;73885;-39
2023/11/17 06:57:37;;;;;;;5.40;4.10;;;;;;;2.66;70.60;99417.38;107547;1251;68084;-39
2023/11/17 07:00:10;;;;;;;4.80;3.80;;;;;;;2.65;70.77;99412.80;106882;1251;1002977;-39
2023/11/17 07:02:40;;;;;;;4.20;3.80;;;;;;;2.66;70.97;99413.19;107612;1257;60550;-39
2023/11/17 07:05:10;;;;;;;5.10;4.10;;;;;;;2.67;70.97;99412.59;107599;1256;60441;-39
2023/11/17 07:07:39;;;;;;;4.40;3.90;;;;;;;2.63;70.73;99417.33;107634;1251;72921;-39
2023/11/17 07:10:14;;;;;;;6.20;4.40;;;;;;;2.62;70.89;99423.86;107705;1255;66428;-39
2023/11/17 07:12:42;;;;;;;7.00;4.10;;;;;;;2.65;70.91;99427.73;107606;1253;73009;-38
2023/11/17 07:15:13;;;;;;;5.30;4.10;;;;;;;2.67;71.06;99432.71;107612;1252;60310;-39
2023/11/17 07:17:42;;;;;;;4.40;3.80;;;;;;;2.68;70.84;99435.36;106887;1253;1002882;-38
2023/11/17 07:20:11;;;;;;;6.20;4.20;;;;;;;2.74;70.60;99435.14;107572;1252;73878;-39
2023/11/17 07:22:39;;;;;;;5.60;3.60;;;;;;;2.81;70.47;99438.50;107643;1253;67893;-39
2023/11/17 07:25:10;;;;;;;4.90;3.50;;;;;;;2.84;70.71;99442.02;107611;1253;71068;-39
2023/11/17 07:27:39;;;;;;;4.20;3.80;;;;;;;2.87;70.51;99449.66;107643;1253;60546;-39
2023/11/17 07:30:13;;;;;;;5.00;3.80;;;;;;;2.85;69.90;99451.85;107668;1252;60693;-39
2023/11/17 07:32:42;;;;;;;5.20;3.90;;;;;;;2.82;70.42;99454.54;107587;1253;73850;-39
2023/11/17 07:35:11;;;;;;;4.50;4.00;;;;;;;2.84;70.64;99460.66;107575;1253;67915;-39
2023/11/17 07:37:40;;;;;;;4.70;4.00;;;;;;;2.85;70.52;99466.95;107508;1252;71707;-39
2023/11/17 07:40:09;;;;;;;5.00;4.10;;;;;;;2.80;69.61;99468.04;107546;1253;60970;-38
2023/11/17 07:42:39;;;;;;;;;;;;;;;2.77;69.33;99473.55;107610;1253;59663;-39
2023/11/17 07:45:10;;;;;;;3.90;3.20;;;;;;;2.73;69.41;99479.94;107609;1252;73852;-39
2023/11/17 07:47:41;;;;;;;5.90;3.30;;;;;;;2.66;70.07;99477.59;107550;1252;67667;-39
2023/11/17 07:50:13;;;;;;;4.10;3.40;;;;;;;2.70;70.44;99478.30;107539;1255;72680;-38
2023/11/17 07:52:43;;;;;;;5.30;3.90;;;;;;;2.75;70.25;99478.83;107443;1253;60480;-38
2023/11/17 07:55:14;;;;;;;5.00;3.40;;;;;;;2.77;70.24;99474.38;107485;1253;60451;-38
2023/11/17 07:57:42;;;;;;;5.60;3.50;;;;;;;2.79;69.90;99479.46;103696;1253;1003349;-39
2023/11/17 08:00:31;;;;;;;6.30;3.70;;;;;;;2.82;70.11;99485.29;107695;1256;60465;-39
2023/11/17 08:02:59;;;;;;;6.50;3.90;;;;;;;2.85;69.79;99493.15;107518;1253;71687;-39
2023/11/17 08:05:27;;;;;;;4.30;3.50;;;;;;;2.75;69.74;99489.20;107494;1253;60448;-39
2023/11/17 08:07:57;;;;;;;7.30;3.40;;;;;;;2.77;69.52;99498.16;107494;1256;60550;-38
2023/11/17 08:10:28;;;;;;;4.90;3.30;;;;;;;2.80;69.65;99500.86;107508;1253;71960;-40
2023/11/17 08:12:55;;;;;;;3.60;3.00;;;;;;;2.90;69.56;99500.34;107488;1253;66495;-38
2023/11/17 08:15:23;;;;;;;7.60;3.10;;;;;;;2.95;69.61;99502.85;107671;1253;72697;-38
2023/11/17 08:17:51;;;;;;;3.40;3.10;;;;;;;2.94;69.27;99503.95;107486;1253;60354;-38
2023/11/17 08:20:21;;;;;;;4.40;3.40;;;;;;;2.95;69.28;99504.36;107492;1253;60502;-38
2023/11/17 08:22:48;;;;;;;;;;;;;;;2.99;69.76;99498.02;107529;1253;73893;-38
2023/11/17 08:25:16;;;;;;;4.00;3.50;;;;;;;3.03;69.22;99496.71;107427;1253;67864;-38
2023/11/17 08:27:44;;;;;;;4.40;4.00;;;;;;;2.99;69.15;99499.26;107415;1253;72728;-39
2023/11/17 08:30:12;;;;;;;4.60;3.70;;;;;;;2.97;69.28;99499.05;107436;1253;60440;-39
2023/11/17 08:32:39;;;;;;;4.60;3.70;;;;;;;2.99;69.36;99497.66;107484;1253;60528;-38
2023/11/17 08:35:08;;;;;;;4.00;3.40;;;;;;;3.04;69.40;99495.35;107408;1253;73862;-38
2023/11/17 08:37:37;;;;;;;;;;;;;;;3.12;68.94;99496.52;107541;1253;67526;-38
2023/11/17 08:40:08;;;;;;;3.90;3.50;;;;;;;3.20;68.49;99496.81;107408;1253;70922;-39
2023/11/17 08:42:37;;;;;;;3.60;3.30;;;;;;;3.22;68.80;99495.58;107473;1253;60442;-39
2023/11/17 08:45:08;;;;;;;3.90;3.30;;;;;;;3.27;68.68;99495.25;107477;1253;60776;-38
2023/11/17 08:47:36;;;;;;;4.40;2.90;;;;;;;3.30;68.58;99492.34;107554;1253;72715;-38
2023/11/17 08:50:08;;;;;;;4.20;3.40;;;;;;;3.28;68.12;99486.58;107527;1253;67880;-38
2023/11/17 08:52:37;;;;;;;4.80;3.70;;;;;;;3.24;68.13;99486.86;107484;1253;72704;-38
2023/11/17 08:55:10;;;;;;;4.40;3.70;;;;;;;3.24;68.23;99487.61;107491;1253;60427;-38
2023/11/17 08:57:37;;;;;;;3.40;3.00;;;;;;;3.23;68.33;99486.98;107575;1253;60330;-38
2023/11/17 09:00:18;;;;;;;4.30;3.60;;;;;;;3.24;68.71;99484.34;107515;1253;73927;-38
2023/11/17 09:02:46;;;;;;;6.10;3.60;;;;;;;3.28;68.83;99479.09;107494;1253;67590;-38
2023/11/17 09:05:13;;;;;;;15.50;6.60;;;;;;;3.35;68.43;99477.92;107481;1253;72670;-38
2023/11/17 09:07:42;;;;;;;7.40;5.00;;;;;;;3.43;68.61;99476.60;107490;1253;60576;-38
2023/11/17 09:10:14;;;;;;;5.10;3.20;;;;;;;3.42;68.68;99465.40;107542;1253;62197;-38
2023/11/17 09:12:44;;;;;;;3.20;2.90;;;;;;;3.53;67.65;99474.28;107517;1253;72966;-39
2023/11/17 09:15:17;;;;;;;5.30;3.10;;;;;;;3.54;67.19;99477.30;107654;1253;67620;-38
2023/11/17 09:17:47;;;;;;;3.70;2.10;;;;;;;3.55;66.65;99476.15;107467;1252;72972;-38
2023/11/17 09:20:17;;;;;;;4.40;3.50;;;;;;;3.56;66.86;99475.27;107563;1253;60338;-38
2023/11/17 09:22:45;;;;;;;3.40;3.00;;;;;;;3.58;66.62;99481.25;107568;1253;60486;-38
2023/11/17 09:25:14;;;;;;;4.10;3.70;;;;;;;3.52;66.58;99483.64;107551;1252;73793;-38
2023/11/17 09:27:51;;;;;;;3.80;3.30;;;;;;;3.49;66.71;99487.42;107549;1253;67977;-38
2023/11/17 09:30:19;;;;;;;5.20;3.70;;;;;;;3.45;66.69;99489.13;107560;1253;71465;-38
2023/11/17 09:32:54;;;;;;;4.90;3.50;;;;;;;3.37;66.57;99489.71;107535;1252;60584;-38
2023/11/17 09:35:26;;;;;;;4.00;3.40;;;;;;;3.28;67.05;99491.27;107574;1253;60418;-38
2023/11/17 09:38:01;;;;;;;4.20;3.10;;;;;;;3.23;67.06;99488.74;107673;1253;73862;-38
2023/11/17 09:40:30;;;;;;;3.10;2.60;;;;;;;3.23;67.12;99489.09;107541;1253;66878;-38
2023/11/17 09:43:23;;;;;;;3.80;3.30;;;;;;;3.24;67.50;99483.02;107561;1253;72666;-38
2023/11/17 09:45:51;;;;;;;3.90;3.50;;;;;;;3.18;67.51;99483.48;107540;1253;60553;-38
2023/11/17 09:48:19;;;;;;;3.60;3.10;;;;;;;3.08;67.68;99482.44;107440;1253;60432;-38
2023/11/17 09:50:51;;;;;;;4.10;3.40;;;;;;;2.99;67.93;99480.35;107424;1253;74414;-38
2023/11/17 09:53:19;;;;;;;4.80;3.40;;;;;;;2.96;68.17;99472.77;107512;1253;67963;-39
2023/11/17 09:55:48;;;;;;;6.70;3.90;;;;;;;2.86;68.14;99456.73;107705;1252;73611;-39
2023/11/17 09:58:16;;;;;;;5.00;3.40;;;;;;;2.90;68.19;99468.27;107502;1257;60492;-39
2023/11/17 10:00:45;;;;;;;5.70;3.50;;;;;;;2.86;68.12;99464.56;107648;1252;60483;-38
2023/11/17 10:03:13;;;;;;;4.90;3.50;;;;;;;2.84;68.69;99466.34;107406;1253;74915;-39
2023/11/17 10:05:42;;;;;;;3.60;3.20;;;;;;;2.86;68.64;99469.43;107536;1253;65909;-38
2023/11/17 10:08:14;;;;;;;4.90;3.50;;;;;;;2.94;68.51;99474.33;107522;1253;71060;-39
2023/11/17 10:10:44;;;;;;;4.20;3.50;;;;;;;3.05;68.61;99473.52;107541;1252;60256;-39
2023/11/17 10:13:12;;;;;;;;;;;;;;;3.10;68.68;99474.84;107526;1253;60554;-38
2023/11/17 10:15:44;;;;;;;4.70;3.70;;;;;;;3.10;68.45;99469.48;107476;1253;73923;-40
2023/11/17 10:18:24;;;;;;;5.60;4.20;;;;;;;3.05;68.38;99471.63;107548;1253;68256;-39
2023/11/17 10:20:53;;;;;;;5.30;4.40;;;;;;;2.98;68.43;99469.98;107560;1257;74044;-39
2023/11/17 10:23:21;;;;;;;6.10;4.50;;;;;;;2.94;68.88;99469.89;107611;1253;60599;-39
2023/11/17 10:25:55;;;;;;;4.40;4.00;;;;;;;2.89;69.01;99469.63;107681;1253;60387;-38
2023/11/17 10:28:25;;;;;;;5.60;4.30;;;;;;;2.78;68.93;99462.52;107539;1253;72349;-38
2023/11/17 10:30:56;;;;;;;4.40;3.90;;;;;;;2.72;69.26;99465.09;107532;1253;68414;-39
2023/11/17 10:33:30;;;;;;;5.30;3.80;;;;;;;2.73;69.31;99457.77;107575;1253;71522;-39
2023/11/17 10:36:03;;;;;;;4.70;4.00;;;;;;;2.80;69.51;99458.45;107683;1253;60412;-39
2023/11/17 10:38:34;;;;;;;5.40;4.10;;;;;;;2.81;69.59;99466.83;107517;1257;60470;-38
2023/11/17 10:41:50;;;;;;;5.30;4.70;;;;;;;2.87;69.92;99468.88;107699;1253;73903;-39
2023/11/17 10:44:14;;;;;;;5.70;4.70;;;;;;;2.99;70.04;99469.27;107536;1253;66175;-39
2023/11/17 10:46:44;;;;;;;4.60;4.10;;;;;;;3.07;70.04;99467.73;107557;1253;72642;-39
2023/11/17 10:49:15;;;;;;;4.60;3.90;;;;;;;3.17;69.74;99467.48;107598;1253;60521;-39
2023/11/17 10:51:46;;;;;;;5.50;4.60;;;;;;;3.24;69.57;99465.64;107582;1253;60308;-39
2023/11/17 10:54:14;;;;;;;7.20;4.60;;;;;;;3.30;69.56;99460.98;107628;1253;73940;-39
2023/11/17 10:56:50;;;;;;;5.80;4.20;;;;;;;3.34;69.43;99461.94;107566;1258;70203;-39
2023/11/17 10:59:20;;;;;;;5.60;3.80;;;;;;;3.43;69.14;99462.33;107734;1252;72826;-38
2023/11/17 11:01:50;;;;;;;5.30;4.20;;;;;;;3.55;68.98;99461.48;107550;1253;60308;-39
2023/11/17 11:04:25;;;;;;;4.70;4.10;;;;;;;3.60;68.86;99464.48;107703;1253;60321;-39
2023/11/17 11:06:55;;;;;;;5.00;4.40;;;;;;;3.67;68.66;99462.59;107575;1252;74196;-39
2023/11/17 11:09:35;;;;;;;4.80;4.10;;;;;;;3.75;68.78;99464.23;107583;1253;66693;-39
2023/11/17 11:12:11;;;;;;;7.50;4.20;;;;;;;3.83;68.52;99466.23;107554;1256;72447;-39
2023/11/17 11:14:40;;;;;;;5.10;4.40;;;;;;;3.89;68.23;99464.84;107557;1253;60431;-39
2023/11/17 11:17:09;;;;;;;5.20;4.40;;;;;;;3.91;67.98;99464.39;107647;1252;60444;-39
2023/11/17 11:19:41;;;;;;;5.10;4.50;;;;;;;3.92;67.79;99462.21;107398;1253;74315;-39
2023/11/17 11:22:28;;;;;;;6.60;4.60;;;;;;;3.86;67.75;99455.33;107688;1252;67859;-39
2023/11/17 11:24:56;;;;;;;5.50;4.70;;;;;;;3.82;67.62;99450.46;107557;1253;72662;-39
2023/11/17 11:27:24;;;;;;;6.70;4.50;;;;;;;3.79;67.89;99452.54;107562;1253;60329;-38
2023/11/17 11:29:52;;;;;;;5.60;4.20;;;;;;;3.81;68.00;99458.44;107407;1253;60367;-39
2023/11/17 11:32:20;;;;;;;4.80;4.00;;;;;;;3.86;67.85;99460.15;107501;1253;74207;-39
2023/11/17 11:34:49;;;;;;;4.80;4.20;;;;;;;3.93;67.92;99451.96;107661;1253;67586;-39
2023/11/17 11:37:18;;;;;;;3.60;3.30;;;;;;;3.94;68.04;99446.41;107671;1252;72674;-39
2023/11/17 11:39:46;;;;;;;5.70;4.30;;;;;;;3.94;68.15;99445.27;107406;1252;60499;-39
2023/11/17 11:42:14;;;;;;;8.60;4.40;;;;;;;3.95;68.19;99444.55;107659;1252;60428;-39
2023/11/17 11:44:41;;;;;;;7.00;4.60;;;;;;;3.94;68.26;99442.50;107592;1253;72696;-39
2023/11/17 11:50:06;;;;;;;8.30;4.80;;;;;;;4.01;68.26;99436.50;104368;1292;600448;-39